Time;durP1;ratioP1;P1;durP2;ratioP2;P2;SDS_P1;SDS_P2;PMS_P1;PMS_P2;Temp;Humidity;BMP_temperature;BMP_pressure;BME280_temperature;BME280_humidity;BME280_pressure;Samples;Min_cycle;Max_cycle;Signal;HPM_P1;HPM_P2
2021/06/26 00:00:12;;;;;;;15.10;13.50;;;17.80;99.90;;;;;;5046461;28;20436;-45
2021/06/26 00:02:38;;;;;;;13.40;12.00;;;17.80;99.90;;;;;;5035363;28;20197;-46
2021/06/26 00:05:05;;;;;;;15.00;13.50;;;17.80;99.90;;;;;;5045149;28;20428;-45
2021/06/26 00:07:31;;;;;;;14.03;12.63;;;17.70;99.90;;;;;;5046256;28;20425;-42
2021/06/26 00:09:57;;;;;;;15.37;13.77;;;17.60;99.90;;;;;;5044398;28;20467;-41
2021/06/26 00:12:22;;;;;;;14.10;12.80;;;17.60;99.90;;;;;;5044697;28;20306;-43
2021/06/26 00:14:49;;;;;;;16.20;13.27;;;17.50;99.90;;;;;;5043588;28;20676;-42
2021/06/26 00:17:15;;;;;;;15.40;13.80;;;17.50;99.90;;;;;;5036511;28;20193;-43
2021/06/26 00:19:41;;;;;;;14.60;13.13;;;17.40;99.90;;;;;;5045860;28;20447;-45
2021/06/26 00:22:06;;;;;;;14.27;12.83;;;17.40;99.90;;;;;;5044494;28;20216;-45
2021/06/26 00:24:32;;;;;;;15.80;13.30;;;17.40;99.90;;;;;;5045119;28;20241;-43
2021/06/26 00:26:58;;;;;;;14.53;13.07;;;17.30;99.90;;;;;;5045580;28;20605;-46
2021/06/26 00:29:23;;;;;;;14.00;12.70;;;17.30;99.90;;;;;;5045486;28;20251;-43
2021/06/26 00:31:49;;;;;;;16.33;13.07;;;17.20;99.90;;;;;;5035822;28;20214;-43
2021/06/26 00:34:15;;;;;;;14.63;13.13;;;17.10;99.90;;;;;;5039285;28;20185;-41
2021/06/26 00:36:41;;;;;;;15.03;13.43;;;17.00;99.90;;;;;;5045672;28;20202;-41
2021/06/26 00:39:07;;;;;;;16.30;14.17;;;17.00;99.90;;;;;;5045904;28;20271;-44
2021/06/26 00:41:33;;;;;;;15.90;14.23;;;16.90;99.90;;;;;;5045576;28;20472;-43
2021/06/26 00:43:59;;;;;;;19.57;17.03;;;16.80;99.90;;;;;;5043792;28;20288;-41
2021/06/26 00:46:24;;;;;;;17.83;16.10;;;16.80;99.90;;;;;;5039721;28;20451;-46
2021/06/26 00:48:50;;;;;;;16.50;14.80;;;16.80;99.90;;;;;;5042367;28;20285;-43
2021/06/26 00:51:16;;;;;;;15.37;13.80;;;16.70;99.90;;;;;;5048894;28;20406;-48
2021/06/26 00:53:42;;;;;;;16.53;14.57;;;16.70;99.90;;;;;;5048702;28;20415;-42
2021/06/26 00:56:08;;;;;;;15.27;13.73;;;16.70;99.90;;;;;;5049087;28;20621;-41
2021/06/26 00:58:35;;;;;;;15.37;13.70;;;16.70;99.90;;;;;;5048735;28;20777;-42
2021/06/26 01:01:00;;;;;;;16.30;14.70;;;16.70;99.90;;;;;;5046292;28;20444;-41
2021/06/26 01:03:26;;;;;;;16.97;15.07;;;16.60;99.90;;;;;;5041419;28;20937;-43
2021/06/26 01:05:52;;;;;;;15.90;14.27;;;16.50;99.90;;;;;;5048572;28;20244;-45
2021/06/26 01:08:18;;;;;;;15.30;13.70;;;16.50;99.90;;;;;;5048627;28;20522;-47
2021/06/26 01:10:44;;;;;;;16.00;14.17;;;16.50;99.90;;;;;;5048381;28;20429;-42
2021/06/26 01:13:10;;;;;;;15.33;13.83;;;16.50;99.90;;;;;;5048000;28;20438;-45
2021/06/26 01:15:36;;;;;;;15.60;13.87;;;16.50;99.90;;;;;;5048522;28;20575;-42
2021/06/26 01:18:02;;;;;;;17.10;15.40;;;16.40;99.90;;;;;;5037169;28;20509;-43
2021/06/26 01:20:29;;;;;;;16.20;14.53;;;16.30;99.90;;;;;;5048349;28;20432;-44
2021/06/26 01:22:57;;;;;;;16.60;14.90;;;16.30;99.90;;;;;;5046500;28;20416;-43
2021/06/26 01:25:24;;;;;;;14.70;13.23;;;16.30;99.90;;;;;;5048369;28;20448;-45
2021/06/26 01:27:51;;;;;;;15.73;14.13;;;16.30;99.90;;;;;;5047900;28;20912;-42
2021/06/26 01:30:29;;;;;;;16.33;14.40;;;16.20;99.90;;;;;;5048549;28;20452;-41
2021/06/26 01:32:55;;;;;;;15.23;13.63;;;16.20;99.90;;;;;;5034963;28;20433;-42
2021/06/26 01:35:21;;;;;;;17.27;15.00;;;16.10;99.90;;;;;;5048394;28;20470;-42
2021/06/26 01:37:47;;;;;;;16.00;14.50;;;16.10;99.90;;;;;;5048222;28;20226;-41
2021/06/26 01:40:18;;;;;;;16.07;14.37;;;16.10;99.90;;;;;;5047842;28;20423;-45
2021/06/26 01:42:46;;;;;;;17.17;15.33;;;16.10;99.90;;;;;;5046274;28;20424;-42
2021/06/26 01:45:12;;;;;;;15.93;14.30;;;16.10;99.90;;;;;;5047931;28;20929;-41
2021/06/26 01:47:46;;;;;;;17.63;15.83;;;16.10;99.90;;;;;;5036352;28;20885;-41
2021/06/26 01:50:13;;;;;;;16.23;14.53;;;16.10;99.90;;;;;;5048289;28;21021;-42
2021/06/26 01:52:39;;;;;;;18.80;15.23;;;16.00;99.90;;;;;;5047764;28;20510;-41
2021/06/26 01:55:05;;;;;;;16.90;15.00;;;16.00;99.90;;;;;;5047107;28;20432;-44
2021/06/26 01:57:31;;;;;;;16.23;14.50;;;15.90;99.90;;;;;;5047374;28;20190;-43
2021/06/26 01:59:56;;;;;;;16.07;14.37;;;15.80;99.90;;;;;;5047791;28;20431;-44
2021/06/26 02:02:22;;;;;;;17.20;15.40;;;15.80;99.90;;;;;;5039131;28;20293;-44
2021/06/26 02:04:47;;;;;;;16.00;14.40;;;15.80;99.90;;;;;;5044254;28;20205;-44
2021/06/26 02:07:13;;;;;;;17.67;15.83;;;15.80;99.90;;;;;;5047477;28;20580;-43
2021/06/26 02:09:39;;;;;;;16.70;14.97;;;15.70;99.90;;;;;;5047109;28;20630;-41
2021/06/26 02:12:05;;;;;;;17.97;16.10;;;15.70;99.90;;;;;;5046302;28;20217;-43
2021/06/26 02:14:31;;;;;;;17.77;15.20;;;15.70;99.90;;;;;;5046796;28;20564;-44
2021/06/26 02:16:56;;;;;;;18.93;16.93;;;15.70;99.90;;;;;;5044434;28;20448;-42
2021/06/26 02:19:22;;;;;;;19.03;16.97;;;15.60;99.90;;;;;;5041519;28;20186;-43
2021/06/26 02:21:48;;;;;;;15.93;14.30;;;15.60;99.90;;;;;;5047049;28;20200;-42
2021/06/26 02:24:14;;;;;;;19.40;17.30;;;15.60;99.90;;;;;;5046721;28;20223;-42
2021/06/26 02:26:39;;;;;;;17.87;15.93;;;15.50;99.90;;;;;;5047131;28;20524;-41
2021/06/26 02:29:05;;;;;;;19.10;17.07;;;15.50;99.90;;;;;;5047085;28;20201;-42
2021/06/26 02:31:31;;;;;;;20.63;16.63;;;15.50;99.90;;;;;;5045584;28;20209;-41
2021/06/26 02:33:56;;;;;;;18.93;16.93;;;15.50;99.90;;;;;;5034412;28;20190;-41
2021/06/26 02:36:22;;;;;;;19.30;17.07;;;15.60;99.90;;;;;;5046619;28;20182;-42
2021/06/26 02:38:48;;;;;;;18.40;16.67;;;15.70;99.90;;;;;;5046837;28;20674;-41
2021/06/26 02:41:13;;;;;;;17.40;15.60;;;15.70;99.90;;;;;;5045497;28;20190;-42
2021/06/26 02:43:39;;;;;;;19.43;17.43;;;15.60;99.90;;;;;;5045532;28;20684;-43
2021/06/26 02:46:05;;;;;;;19.03;16.57;;;15.60;99.90;;;;;;5045583;28;20181;-43
2021/06/26 02:48:31;;;;;;;19.50;17.50;;;15.50;99.90;;;;;;5032653;28;20571;-43
2021/06/26 02:50:57;;;;;;;20.07;17.87;;;15.40;99.90;;;;;;5044250;28;20216;-45
2021/06/26 02:53:22;;;;;;;18.00;16.20;;;15.40;99.90;;;;;;5044776;28;20428;-41
2021/06/26 02:55:55;;;;;;;21.50;16.63;;;15.40;99.90;;;;;;5045404;28;20204;-42
2021/06/26 02:58:21;;;;;;;18.00;16.10;;;15.30;99.90;;;;;;5047151;28;20189;-46
2021/06/26 03:00:47;;;;;;;22.17;19.87;;;15.30;99.90;;;;;;5046593;28;20930;-41
2021/06/26 03:03:13;;;;;;;20.43;18.33;;;15.30;99.90;;;;;;5039771;28;20455;-42
2021/06/26 03:05:38;;;;;;;21.70;19.50;;;15.30;99.90;;;;;;5043527;28;20189;-45
2021/06/26 03:08:04;;;;;;;19.10;17.20;;;15.50;99.90;;;;;;5046764;28;20193;-43
2021/06/26 03:10:30;;;;;;;20.60;18.40;;;15.50;99.90;;;;;;5046266;28;20185;-42
2021/06/26 03:12:56;;;;;;;20.13;18.10;;;15.40;99.90;;;;;;5045720;28;20193;-44
2021/06/26 03:15:21;;;;;;;21.43;19.13;;;15.40;99.90;;;;;;5046302;28;20417;-42
2021/06/26 03:17:47;;;;;;;20.93;18.43;;;15.30;99.90;;;;;;5039822;28;20286;-41
2021/06/26 03:20:13;;;;;;;21.90;18.53;;;15.30;99.90;;;;;;5042231;28;20186;-41
2021/06/26 03:22:38;;;;;;;20.43;18.33;;;15.20;99.90;;;;;;5046223;28;20733;-45
2021/06/26 03:25:05;;;;;;;20.23;18.07;;;15.20;99.90;;;;;;5045686;28;20197;-43
2021/06/26 03:27:31;;;;;;;21.30;19.10;;;15.20;99.90;;;;;;5046297;28;20217;-42
2021/06/26 03:29:56;;;;;;;21.63;19.30;;;15.20;99.90;;;;;;5046264;28;20938;-43
2021/06/26 03:32:22;;;;;;;20.30;17.90;;;15.30;99.90;;;;;;5040624;28;20221;-45
2021/06/26 03:34:48;;;;;;;20.77;18.60;;;15.20;99.90;;;;;;5038045;28;20193;-46
2021/06/26 03:37:13;;;;;;;19.77;17.77;;;15.20;99.90;;;;;;5045707;28;20692;-44
2021/06/26 03:39:39;;;;;;;19.50;17.50;;;15.30;99.90;;;;;;5046306;28;20186;-43
2021/06/26 03:42:06;;;;;;;19.57;17.37;;;15.20;99.90;;;;;;5045401;28;20186;-45
2021/06/26 03:44:31;;;;;;;19.23;17.13;;;15.20;99.90;;;;;;5045445;28;20652;-41
2021/06/26 03:46:57;;;;;;;20.03;18.03;;;15.20;99.90;;;;;;5046230;28;20424;-43
2021/06/26 03:49:23;;;;;;;21.57;19.37;;;15.20;99.90;;;;;;5035087;28;20224;-43
2021/06/26 03:51:48;;;;;;;20.03;17.90;;;15.20;99.90;;;;;;5046038;28;20858;-44
2021/06/26 03:54:14;;;;;;;20.73;18.50;;;15.20;99.90;;;;;;5045058;28;20231;-41
2021/06/26 03:56:40;;;;;;;20.73;18.57;;;15.20;99.90;;;;;;5046306;28;20585;-43
2021/06/26 03:59:05;;;;;;;21.23;18.70;;;15.30;99.90;;;;;;5046143;28;20182;-44
2021/06/26 04:01:31;;;;;;;20.13;17.93;;;15.50;99.90;;;;;;5046050;28;20224;-42
2021/06/26 04:03:57;;;;;;;22.20;19.87;;;15.60;99.90;;;;;;5032703;28;20678;-40
2021/06/26 04:06:22;;;;;;;19.63;17.70;;;15.60;99.90;;;;;;5045801;28;20269;-46
2021/06/26 04:08:48;;;;;;;24.57;19.80;;;15.70;99.90;;;;;;5040467;28;20213;-41
2021/06/26 04:11:14;;;;;;;20.30;18.23;;;15.70;99.90;;;;;;5045766;28;20217;-43
2021/06/26 04:13:40;;;;;;;21.60;19.30;;;15.80;99.90;;;;;;5045218;28;20271;-42
2021/06/26 04:16:06;;;;;;;23.50;20.77;;;15.70;99.90;;;;;;5045802;28;20235;-42
2021/06/26 04:18:32;;;;;;;23.60;20.17;;;15.70;99.90;;;;;;5036620;28;20186;-44
2021/06/26 04:20:57;;;;;;;24.67;20.50;;;15.70;99.90;;;;;;5047966;28;20778;-41
2021/06/26 04:23:23;;;;;;;22.40;20.00;;;15.70;99.90;;;;;;5049199;28;20181;-42
2021/06/26 04:25:51;;;;;;;25.53;21.70;;;15.80;99.90;;;;;;5049624;28;20255;-44
2021/06/26 04:28:17;;;;;;;28.00;22.23;;;15.80;99.90;;;;;;5048559;28;20193;-43
2021/06/26 04:30:43;;;;;;;24.60;21.50;;;15.90;99.90;;;;;;5049169;28;20432;-41
2021/06/26 04:33:10;;;;;;;29.70;23.70;;;16.00;99.90;;;;;;5042861;28;20436;-43
2021/06/26 04:35:35;;;;;;;25.77;23.27;;;16.00;99.90;;;;;;5047869;28;20420;-42
2021/06/26 04:38:01;;;;;;;24.03;21.07;;;16.00;99.90;;;;;;5049490;28;20416;-42
2021/06/26 04:40:27;;;;;;;26.10;22.70;;;16.10;99.90;;;;;;5049652;28;20785;-43
2021/06/26 04:42:53;;;;;;;26.33;22.47;;;16.10;99.90;;;;;;5046610;28;20244;-43
2021/06/26 04:45:19;;;;;;;24.20;21.70;;;16.10;99.90;;;;;;5049391;28;20416;-41
2021/06/26 04:47:46;;;;;;;24.33;21.67;;;16.10;99.90;;;;;;5046431;28;20957;-46
2021/06/26 04:50:13;;;;;;;25.33;21.73;;;16.20;99.90;;;;;;5041485;28;20888;-41
2021/06/26 04:52:41;;;;;;;25.10;20.83;;;16.20;99.90;;;;;;5048870;28;20474;-43
2021/06/26 04:55:07;;;;;;;23.80;21.40;;;16.30;99.90;;;;;;5048176;28;20944;-41
2021/06/26 04:57:33;;;;;;;24.10;21.50;;;16.30;99.90;;;;;;5048859;28;20459;-42
2021/06/26 04:59:59;;;;;;;23.13;20.70;;;16.30;99.90;;;;;;5048955;28;20454;-41
2021/06/26 05:02:24;;;;;;;25.07;22.23;;;16.40;99.90;;;;;;5048597;28;20281;-44
2021/06/26 05:04:50;;;;;;;24.20;21.67;;;16.40;99.90;;;;;;5037986;28;20720;-41
2021/06/26 05:07:16;;;;;;;24.77;22.27;;;16.50;99.90;;;;;;5048596;28;20185;-43
2021/06/26 05:09:41;;;;;;;26.70;22.40;;;16.50;99.90;;;;;;5048927;28;20802;-43
2021/06/26 05:12:07;;;;;;;27.03;23.27;;;16.60;99.90;;;;;;5048298;28;20209;-43
2021/06/26 05:14:33;;;;;;;29.70;23.47;;;16.70;99.90;;;;;;5046790;28;20194;-41
2021/06/26 05:16:59;;;;;;;27.23;23.83;;;16.70;99.90;;;;;;5048207;28;20482;-45
2021/06/26 05:19:24;;;;;;;27.50;23.50;;;16.80;99.90;;;;;;5037473;28;20723;-43
2021/06/26 05:21:50;;;;;;;25.93;23.10;;;16.80;99.90;;;;;;5047684;28;20186;-44
2021/06/26 05:24:16;;;;;;;29.23;24.57;;;17.00;99.90;;;;;;5047747;28;20436;-44
2021/06/26 05:26:43;;;;;;;26.40;23.43;;;17.00;99.90;;;;;;5048396;28;20189;-45
2021/06/26 05:29:08;;;;;;;28.60;23.53;;;17.10;99.90;;;;;;5048659;28;20202;-46
2021/06/26 05:31:34;;;;;;;25.47;22.80;;;17.00;99.90;;;;;;5047252;28;20456;-41
2021/06/26 05:34:00;;;;;;;26.27;22.10;;;17.10;99.90;;;;;;5039953;28;20741;-45
2021/06/26 05:36:25;;;;;;;26.90;23.03;;;17.20;99.90;;;;;;5040402;28;20243;-45
2021/06/26 05:38:51;;;;;;;27.33;24.30;;;17.40;99.90;;;;;;5047902;28;20196;-45
2021/06/26 05:41:17;;;;;;;30.63;26.60;;;17.50;99.90;;;;;;5048544;28;20189;-44
2021/06/26 05:43:42;;;;;;;30.10;26.47;;;17.60;99.90;;;;;;5046385;28;20201;-42
2021/06/26 05:46:08;;;;;;;27.93;24.93;;;17.70;99.90;;;;;;5047916;28;20182;-45
2021/06/26 05:48:34;;;;;;;30.00;26.73;;;17.90;99.90;;;;;;5041958;28;20596;-43
2021/06/26 05:51:00;;;;;;;30.40;25.37;;;18.10;99.90;;;;;;5045283;28;20241;-43
2021/06/26 05:53:25;;;;;;;28.60;24.30;;;18.20;99.90;;;;;;5047039;28;20720;-42
2021/06/26 05:55:58;;;;;;;31.60;25.00;;;18.40;99.90;;;;;;5047922;28;20190;-45
2021/06/26 05:58:25;;;;;;;29.60;25.83;;;18.60;99.90;;;;;;5047715;28;20186;-43
2021/06/26 06:00:51;;;;;;;36.00;28.27;;;18.70;99.90;;;;;;5047777;28;20529;-43
2021/06/26 06:03:17;;;;;;;32.07;27.73;;;18.80;99.90;;;;;;5043307;28;20987;-42
2021/06/26 06:05:43;;;;;;;37.80;27.23;;;18.90;99.90;;;;;;5052156;28;20630;-42
2021/06/26 06:08:08;;;;;;;30.23;26.27;;;18.90;99.90;;;;;;5046422;28;20202;-43
2021/06/26 06:10:34;;;;;;;30.63;26.63;;;19.10;99.90;;;;;;5047937;28;20193;-45
2021/06/26 06:13:00;;;;;;;27.63;24.60;;;19.20;99.90;;;;;;5046827;28;20213;-41
2021/06/26 06:15:25;;;;;;;31.13;26.20;;;19.20;99.90;;;;;;5016742;28;20185;-43
2021/06/26 06:17:51;;;;;;;26.80;23.90;;;19.30;99.90;;;;;;5047480;28;20212;-43
2021/06/26 06:20:17;;;;;;;30.10;24.63;;;19.30;99.90;;;;;;5035808;28;20250;-43
2021/06/26 06:22:42;;;;;;;28.10;24.27;;;19.30;99.90;;;;;;5047492;28;20200;-41
2021/06/26 06:25:10;;;;;;;27.37;24.67;;;19.40;99.90;;;;;;5046543;28;20250;-43
2021/06/26 06:27:40;;;;;;;28.20;24.37;;;19.50;99.90;;;;;;5047226;28;20260;-41
2021/06/26 06:30:07;;;;;;;24.53;21.97;;;19.60;99.90;;;;;;5047095;28;20441;-45
2021/06/26 06:32:33;;;;;;;26.03;23.40;;;19.70;99.90;;;;;;5047111;28;20567;-45
2021/06/26 06:34:59;;;;;;;27.67;22.33;;;19.70;99.90;;;;;;5037062;28;20436;-43
2021/06/26 06:37:25;;;;;;;23.47;20.50;;;19.70;99.90;;;;;;5045692;28;20435;-42
2021/06/26 06:39:50;;;;;;;24.53;21.77;;;19.70;99.90;;;;;;5046843;28;20193;-43
2021/06/26 06:42:16;;;;;;;23.60;21.27;;;19.80;99.90;;;;;;5045963;28;21117;-44
2021/06/26 06:44:41;;;;;;;23.60;20.93;;;19.80;99.90;;;;;;5046108;28;20201;-42
2021/06/26 06:47:07;;;;;;;21.63;19.33;;;19.70;99.90;;;;;;5045804;28;20201;-41
2021/06/26 06:49:33;;;;;;;22.93;20.63;;;19.60;99.90;;;;;;5038363;28;20198;-42
2021/06/26 06:51:59;;;;;;;22.83;20.40;;;19.60;99.90;;;;;;5046789;28;20676;-46
2021/06/26 06:54:25;;;;;;;23.13;19.80;;;19.70;99.90;;;;;;5044887;28;20517;-44
2021/06/26 06:56:51;;;;;;;24.67;20.57;;;19.80;99.90;;;;;;5045644;28;20913;-42
2021/06/26 06:59:16;;;;;;;21.37;18.60;;;19.90;99.90;;;;;;5045452;28;20668;-41
2021/06/26 07:01:42;;;;;;;22.57;19.27;;;20.10;99.90;;;;;;5046753;28;20189;-42
2021/06/26 07:04:08;;;;;;;21.20;19.03;;;20.20;99.90;;;;;;5040114;28;20676;-42
2021/06/26 07:06:33;;;;;;;19.43;17.50;;;20.40;99.90;;;;;;5043321;28;20275;-45
2021/06/26 07:08:59;;;;;;;20.27;16.80;;;20.50;99.90;;;;;;5044313;28;20549;-46
2021/06/26 07:11:26;;;;;;;18.87;16.97;;;20.70;99.90;;;;;;5045855;28;20245;-43
2021/06/26 07:13:52;;;;;;;16.30;14.70;;;20.90;99.90;;;;;;5045426;28;20182;-43
2021/06/26 07:16:19;;;;;;;15.80;14.37;;;21.00;99.90;;;;;;5045908;28;20475;-45
2021/06/26 07:18:44;;;;;;;16.70;15.10;;;21.10;99.90;;;;;;5046707;28;20451;-45
2021/06/26 07:21:10;;;;;;;16.77;12.97;;;21.20;99.90;;;;;;5053781;28;20190;-43
2021/06/26 07:23:36;;;;;;;16.80;15.10;;;21.30;99.90;;;;;;5061013;28;20553;-42
2021/06/26 07:26:01;;;;;;;17.57;15.80;;;21.30;99.90;;;;;;5067923;28;20636;-42
2021/06/26 07:28:27;;;;;;;13.33;12.00;;;21.40;99.90;;;;;;5058744;28;20923;-43
2021/06/26 07:30:53;;;;;;;15.53;13.27;;;21.60;99.90;;;;;;5068083;28;20213;-41
2021/06/26 07:33:18;;;;;;;14.07;12.67;;;21.70;99.90;;;;;;5067531;28;20716;-43
2021/06/26 07:35:44;;;;;;;12.90;11.70;;;21.70;99.90;;;;;;5036405;28;20199;-42
2021/06/26 07:38:10;;;;;;;12.50;11.30;;;21.90;99.90;;;;;;5047084;28;20228;-45
2021/06/26 07:40:35;;;;;;;13.70;12.47;;;21.90;99.90;;;;;;5047456;28;20193;-41
2021/06/26 07:43:01;;;;;;;13.80;12.53;;;22.00;99.90;;;;;;5043776;28;20194;-46
2021/06/26 07:45:27;;;;;;;15.27;12.90;;;22.00;99.90;;;;;;5045568;28;20671;-45
2021/06/26 07:47:53;;;;;;;14.37;12.10;;;22.00;99.90;;;;;;5045484;28;20442;-42
2021/06/26 07:50:18;;;;;;;15.83;14.20;;;22.00;99.90;;;;;;5034949;28;20233;-46
2021/06/26 07:52:44;;;;;;;15.40;12.70;;;22.00;99.90;;;;;;5042740;28;20229;-43
2021/06/26 07:55:10;;;;;;;15.20;13.80;;;22.10;99.90;;;;;;5046254;28;20186;-47
2021/06/26 07:57:36;;;;;;;14.20;12.80;;;22.10;99.90;;;;;;5048676;28;20263;-42
2021/06/26 08:00:05;;;;;;;17.80;13.80;;;22.10;99.90;;;;;;5048802;28;20428;-43
2021/06/26 08:02:31;;;;;;;14.53;13.20;;;22.10;99.90;;;;;;5048955;28;20456;-44
2021/06/26 08:04:56;;;;;;;14.10;12.60;;;22.20;99.90;;;;;;5043158;28;20888;-44
2021/06/26 08:07:22;;;;;;;14.40;13.10;;;22.20;99.90;;;;;;5045812;28;20198;-45
2021/06/26 08:09:48;;;;;;;12.57;11.40;;;22.20;99.90;;;;;;5048364;28;20212;-46
2021/06/26 08:12:16;;;;;;;12.90;11.80;;;22.30;99.90;;;;;;5048672;28;20231;-42
2021/06/26 08:14:42;;;;;;;13.60;12.20;;;22.20;99.90;;;;;;5049229;28;20337;-48
2021/06/26 08:17:11;;;;;;;12.13;10.97;;;22.20;99.90;;;;;;5049927;28;20427;-43
2021/06/26 08:19:36;;;;;;;11.80;10.70;;;22.20;99.90;;;;;;5043112;28;20535;-48
2021/06/26 08:22:04;;;;;;;11.93;10.80;;;22.10;99.90;;;;;;5045496;28;20523;-42
2021/06/26 08:24:30;;;;;;;12.73;11.30;;;22.10;99.90;;;;;;5047383;28;20352;-42
2021/06/26 08:26:56;;;;;;;10.47;9.57;;;22.10;99.90;;;;;;5049725;28;20794;-44
2021/06/26 08:29:21;;;;;;;9.97;8.97;;;22.30;99.90;;;;;;5049570;28;20186;-44
2021/06/26 08:31:47;;;;;;;12.63;9.60;;;22.30;99.90;;;;;;5048430;28;20236;-42
2021/06/26 08:34:12;;;;;;;10.30;9.30;;;22.40;99.90;;;;;;5046840;28;20621;-42
2021/06/26 08:36:38;;;;;;;11.07;9.60;;;22.50;99.90;;;;;;5042837;28;20194;-42
2021/06/26 08:39:04;;;;;;;9.67;8.80;;;22.70;98.80;;;;;;5049202;28;20212;-42
2021/06/26 08:41:39;;;;;;;10.60;9.60;;;22.70;99.10;;;;;;5049239;28;20194;-42
2021/06/26 08:44:06;;;;;;;9.07;8.33;;;22.80;99.30;;;;;;5046658;28;20423;-42
2021/06/26 08:46:32;;;;;;;9.17;8.27;;;22.90;98.10;;;;;;5048020;28;20424;-46
2021/06/26 08:48:58;;;;;;;10.20;9.20;;;22.90;98.00;;;;;;5049433;28;20412;-45
2021/06/26 08:51:24;;;;;;;10.60;9.50;;;23.00;98.20;;;;;;5040952;28;21120;-43
2021/06/26 08:53:50;;;;;;;8.50;7.57;;;23.10;98.00;;;;;;5047199;28;20192;-44
2021/06/26 08:56:16;;;;;;;8.70;7.90;;;23.30;97.40;;;;;;5048742;28;21338;-47
2021/06/26 08:58:42;;;;;;;8.87;8.07;;;23.40;96.90;;;;;;5049032;28;20217;-44
2021/06/26 09:01:08;;;;;;;7.57;6.77;;;23.50;96.30;;;;;;5047534;28;20863;-42
2021/06/26 09:03:33;;;;;;;7.53;6.83;;;23.60;93.30;;;;;;5048194;28;20589;-45
2021/06/26 09:06:06;;;;;;;8.73;8.03;;;23.60;93.00;;;;;;5038723;28;20213;-45
2021/06/26 09:08:32;;;;;;;7.43;6.77;;;23.60;93.50;;;;;;5047832;28;20563;-45
2021/06/26 09:10:58;;;;;;;7.67;6.97;;;23.60;93.40;;;;;;5048844;28;20951;-45
2021/06/26 09:13:32;;;;;;;7.70;7.00;;;23.70;92.90;;;;;;5048210;28;20412;-45
2021/06/26 09:16:11;;;;;;;7.87;7.27;;;23.90;93.20;;;;;;5036461;28;20285;-43
2021/06/26 09:18:51;;;;;;;8.13;7.30;;;23.90;92.20;;;;;;5048408;28;20416;-43
2021/06/26 09:21:23;;;;;;;7.90;7.10;;;24.00;93.90;;;;;;5036046;28;20441;-42
2021/06/26 09:24:00;;;;;;;7.70;7.00;;;24.20;93.00;;;;;;5046727;28;20487;-43
2021/06/26 09:26:27;;;;;;;8.60;7.90;;;24.30;92.50;;;;;;5048256;28;20433;-43
2021/06/26 09:28:53;;;;;;;8.20;7.50;;;24.50;93.20;;;;;;5048456;28;20993;-45
2021/06/26 09:31:21;;;;;;;8.43;7.67;;;24.60;92.20;;;;;;5047121;28;20476;-42
2021/06/26 09:33:57;;;;;;;8.40;7.60;;;24.70;91.90;;;;;;5047856;28;20182;-41
2021/06/26 09:36:31;;;;;;;8.80;8.00;;;24.70;92.20;;;;;;5035215;28;20432;-44
2021/06/26 09:39:06;;;;;;;11.93;8.63;;;24.60;91.80;;;;;;5046800;28;20415;-41
2021/06/26 09:41:31;;;;;;;9.60;8.47;;;24.80;91.00;;;;;;5048199;28;20449;-43
2021/06/26 09:44:11;;;;;;;8.87;8.17;;;24.90;91.60;;;;;;5046707;28;20883;-46
2021/06/26 09:46:51;;;;;;;9.00;8.20;;;24.70;91.50;;;;;;5048218;28;20197;-46
2021/06/26 09:49:27;;;;;;;8.43;7.73;;;24.40;92.10;;;;;;5048500;28;20428;-44
2021/06/26 09:52:01;;;;;;;8.97;8.17;;;24.20;91.80;;;;;;5039438;28;20811;-43
2021/06/26 09:54:28;;;;;;;10.30;9.40;;;24.10;92.70;;;;;;5047179;28;20932;-44
2021/06/26 09:56:54;;;;;;;9.03;8.27;;;23.90;92.20;;;;;;5047673;28;20423;-47
2021/06/26 09:59:32;;;;;;;8.97;8.27;;;23.80;92.40;;;;;;5047455;28;20499;-45
2021/06/26 10:01:59;;;;;;;9.90;9.07;;;23.70;92.80;;;;;;5047768;28;20452;-44
2021/06/26 10:04:25;;;;;;;9.13;8.43;;;23.60;92.60;;;;;;5046423;28;20832;-44
2021/06/26 10:06:52;;;;;;;9.60;8.70;;;23.60;92.80;;;;;;5042017;28;20444;-46
2021/06/26 10:09:19;;;;;;;9.20;8.50;;;23.60;93.10;;;;;;5045569;28;21065;-44
2021/06/26 10:11:46;;;;;;;7.87;7.17;;;23.60;93.90;;;;;;5047670;28;20484;-45
2021/06/26 10:14:12;;;;;;;9.43;8.63;;;23.70;93.90;;;;;;5040680;28;20418;-41
2021/06/26 10:16:40;;;;;;;9.53;8.63;;;23.60;93.10;;;;;;5040720;28;20416;-45
2021/06/26 10:19:12;;;;;;;9.57;8.67;;;23.70;94.50;;;;;;5045543;28;20428;-43
2021/06/26 10:21:38;;;;;;;9.47;8.67;;;23.70;93.60;;;;;;5034378;28;20448;-44
2021/06/26 10:24:12;;;;;;;9.00;8.30;;;23.80;94.70;;;;;;5045027;28;20424;-43
2021/06/26 10:26:40;;;;;;;8.13;7.53;;;23.90;95.10;;;;;;5041340;28;20427;-41
2021/06/26 10:29:06;;;;;;;10.83;9.83;;;24.00;94.60;;;;;;5046649;28;20773;-45
2021/06/26 10:31:46;;;;;;;9.33;8.63;;;23.90;93.80;;;;;;5045173;28;20475;-44
2021/06/26 10:34:13;;;;;;;9.13;8.30;;;23.90;93.00;;;;;;5046075;28;20439;-41
2021/06/26 10:36:43;;;;;;;9.20;8.50;;;23.80;92.60;;;;;;5033939;28;20451;-46
2021/06/26 10:39:30;;;;;;;9.70;9.00;;;23.80;94.50;;;;;;5045993;28;20474;-43
2021/06/26 10:42:19;;;;;;;10.10;9.10;;;23.60;93.00;;;;;;5033880;28;20424;-41
2021/06/26 10:44:50;;;;;;;10.20;8.67;;;23.60;93.70;;;;;;5046153;28;20416;-48
2021/06/26 10:47:35;;;;;;;9.73;8.93;;;23.50;94.10;;;;;;5047146;28;20955;-43
2021/06/26 10:50:18;;;;;;;9.60;8.80;;;23.50;94.10;;;;;;5047269;28;20459;-45
2021/06/26 10:52:55;;;;;;;9.77;8.77;;;23.50;93.90;;;;;;5040722;28;20471;-45
2021/06/26 10:55:36;;;;;;;9.27;8.57;;;23.40;93.90;;;;;;5046712;28;20420;-42
2021/06/26 10:58:04;;;;;;;9.60;8.67;;;23.50;94.40;;;;;;5033276;28;20416;-45
2021/06/26 11:00:40;;;;;;;9.20;8.40;;;23.50;95.10;;;;;;5045456;28;21004;-44
2021/06/26 11:03:23;;;;;;;9.20;8.50;;;23.50;95.20;;;;;;5046328;28;20896;-45
2021/06/26 11:05:49;;;;;;;9.40;8.50;;;23.40;94.90;;;;;;5043078;28;20591;-44
2021/06/26 11:08:15;;;;;;;8.53;7.83;;;23.50;94.20;;;;;;5040747;28;20502;-41
2021/06/26 11:10:58;;;;;;;8.70;8.00;;;23.60;94.60;;;;;;5046512;28;20182;-43
2021/06/26 11:13:27;;;;;;;10.00;8.70;;;23.70;94.90;;;;;;5046083;28;20432;-47
2021/06/26 11:16:03;;;;;;;9.03;8.20;;;23.70;94.40;;;;;;5045777;28;20409;-43
2021/06/26 11:18:29;;;;;;;10.10;9.10;;;23.80;94.30;;;;;;5044633;28;20526;-43
2021/06/26 11:20:57;;;;;;;9.60;8.80;;;23.80;93.80;;;;;;5043386;28;20474;-43
2021/06/26 11:23:22;;;;;;;8.90;8.00;;;23.80;93.90;;;;;;5044100;28;20823;-43
2021/06/26 11:25:48;;;;;;;9.87;9.07;;;23.80;94.00;;;;;;5045673;28;20794;-45
2021/06/26 11:28:17;;;;;;;9.57;8.57;;;23.80;94.00;;;;;;5046342;28;20221;-43
2021/06/26 11:30:46;;;;;;;9.07;8.27;;;23.80;94.20;;;;;;5045701;28;20355;-42
2021/06/26 11:33:12;;;;;;;9.47;8.57;;;23.80;93.90;;;;;;5045322;28;20460;-43
2021/06/26 11:35:39;;;;;;;9.50;8.80;;;23.80;93.30;;;;;;5044636;28;20431;-45
2021/06/26 11:38:18;;;;;;;9.80;8.43;;;23.80;92.60;;;;;;5041447;28;20420;-43
2021/06/26 11:40:44;;;;;;;9.47;8.50;;;23.70;93.80;;;;;;5045109;28;20427;-44
2021/06/26 11:43:10;;;;;;;9.50;8.70;;;23.80;94.40;;;;;;5043979;28;20517;-43
2021/06/26 11:45:41;;;;;;;9.50;8.60;;;23.80;94.00;;;;;;5046416;28;20581;-42
2021/06/26 11:48:17;;;;;;;9.47;8.67;;;23.80;93.80;;;;;;5044936;28;20192;-43
2021/06/26 11:50:46;;;;;;;8.60;7.90;;;23.80;93.00;;;;;;5043500;28;20865;-47
2021/06/26 11:53:13;;;;;;;8.43;7.77;;;23.80;93.70;;;;;;5036055;28;20483;-43
2021/06/26 11:55:40;;;;;;;8.80;8.07;;;23.80;94.10;;;;;;5044642;28;20425;-42
2021/06/26 11:58:06;;;;;;;8.30;7.50;;;23.80;93.50;;;;;;5032721;28;20408;-42
2021/06/26 12:00:32;;;;;;;9.30;8.57;;;23.80;94.70;;;;;;5046143;28;20427;-45
2021/06/26 12:02:57;;;;;;;9.40;8.60;;;23.80;93.40;;;;;;5045242;28;20262;-42
2021/06/26 12:05:23;;;;;;;9.30;8.40;;;23.80;93.60;;;;;;5045828;28;20204;-43
2021/06/26 12:07:49;;;;;;;10.00;9.00;;;23.80;94.00;;;;;;5035080;28;20680;-41
2021/06/26 12:10:15;;;;;;;8.57;7.87;;;23.90;93.70;;;;;;5045666;28;20332;-43
2021/06/26 12:12:42;;;;;;;8.77;8.07;;;23.90;93.40;;;;;;5046028;28;21012;-45
2021/06/26 12:15:11;;;;;;;9.17;8.40;;;23.90;93.70;;;;;;5045035;28;20934;-43
2021/06/26 12:17:37;;;;;;;8.97;8.17;;;24.00;93.30;;;;;;5043574;28;20505;-48
2021/06/26 12:20:09;;;;;;;9.33;8.63;;;24.00;92.20;;;;;;5046608;28;20820;-46
2021/06/26 12:22:34;;;;;;;9.50;8.33;;;24.00;92.50;;;;;;5037981;28;20435;-43
2021/06/26 12:25:13;;;;;;;8.00;7.40;;;24.10;91.90;;;;;;5045944;28;20424;-46
2021/06/26 12:27:39;;;;;;;8.47;7.70;;;24.20;90.80;;;;;;5046221;28;20194;-42
2021/06/26 12:30:08;;;;;;;8.37;7.60;;;24.20;91.20;;;;;;5045534;28;20570;-42
2021/06/26 12:32:36;;;;;;;8.30;7.60;;;24.30;91.80;;;;;;5045921;28;20760;-46